Time;durP1;ratioP1;P1;durP2;ratioP2;P2;SDS_P1;SDS_P2;PMS_P1;PMS_P2;Temp;Humidity;BMP_temperature;BMP_pressure;BME280_temperature;BME280_humidity;BME280_pressure;Samples;Min_cycle;Max_cycle;Signal;HPM_P1;HPM_P2
2021/07/19 00:02:08;;;;;;;5.97;2.88;;;;;;;18.71;69.96;101964.25;5036361;28;20059;-72
2021/07/19 00:04:40;;;;;;;4.93;2.72;;;;;;;18.69;70.01;101955.75;5031477;28;20064;-72
2021/07/19 00:07:05;;;;;;;6.28;2.90;;;;;;;18.66;70.23;101956.91;5031055;28;20049;-72
2021/07/19 00:09:32;;;;;;;5.97;2.85;;;;;;;18.67;70.53;101958.53;5033839;28;20052;-72
2021/07/19 00:11:57;;;;;;;3.17;2.67;;;;;;;18.68;70.52;101961.97;5034265;28;20065;-72
2021/07/19 00:14:23;;;;;;;4.68;2.78;;;;;;;18.70;70.56;101959.19;5030613;28;20064;-72
2021/07/19 00:16:49;;;;;;;9.48;3.42;;;;;;;18.67;70.30;101955.13;5026225;28;20029;-72
2021/07/19 00:19:14;;;;;;;6.57;3.17;;;;;;;18.64;70.77;101955.47;5011205;28;20398;-72
2021/07/19 00:21:40;;;;;;;6.95;3.10;;;;;;;18.58;71.07;101958.81;5019461;28;20046;-72
2021/07/19 00:24:05;;;;;;;6.65;3.05;;;;;;;18.52;71.31;101951.69;5022878;28;20029;-72
2021/07/19 00:26:31;;;;;;;5.68;2.58;;;;;;;18.49;71.34;101948.38;5025493;28;20056;-72
2021/07/19 00:28:56;;;;;;;5.00;2.70;;;;;;;18.47;71.14;101945.13;5027205;28;20048;-72
2021/07/19 00:31:22;;;;;;;5.82;2.85;;;;;;;18.47;71.01;101947.75;5035330;28;20214;-72
2021/07/19 00:33:48;;;;;;;5.20;2.95;;;;;;;18.45;71.17;101941.06;5022587;28;20545;-72
2021/07/19 00:36:14;;;;;;;4.93;2.95;;;;;;;18.43;71.27;101943.06;5019483;28;20056;-72
2021/07/19 00:38:39;;;;;;;4.95;2.60;;;;;;;18.44;71.17;101940.25;5025848;28;20048;-72
2021/07/19 00:41:05;;;;;;;6.78;3.47;;;;;;;18.39;71.29;101939.97;5007751;28;20037;-72
2021/07/19 00:43:31;;;;;;;7.68;2.97;;;;;;;18.35;71.43;101946.59;5020793;28;20041;-72
2021/07/19 00:45:56;;;;;;;6.22;3.00;;;;;;;18.35;71.22;101943.16;5024973;28;20450;-72
2021/07/19 00:48:22;;;;;;;8.07;2.75;;;;;;;18.26;71.54;101943.22;5021296;28;20045;-72
2021/07/19 00:50:49;;;;;;;6.85;3.17;;;;;;;18.20;71.82;101946.56;5019932;28;20037;-73
2021/07/19 00:53:15;;;;;;;9.90;3.35;;;;;;;18.20;71.95;101945.75;5020331;28;20049;-72
2021/07/19 00:55:43;;;;;;;5.70;2.85;;;;;;;18.19;71.66;101947.53;5024946;28;20044;-72
2021/07/19 00:58:10;;;;;;;4.57;2.58;;;;;;;18.21;71.49;101945.56;5026956;28;20099;-72
2021/07/19 01:00:40;;;;;;;3.92;2.58;;;;;;;18.20;71.41;101937.88;5030884;28;20116;-72
2021/07/19 01:03:07;;;;;;;4.82;2.85;;;;;;;18.19;71.43;101931.78;5022464;28;20037;-72
2021/07/19 01:05:39;;;;;;;7.68;3.60;;;;;;;18.18;71.18;101929.38;5024580;28;22590;-72
2021/07/19 01:08:06;;;;;;;4.18;2.42;;;;;;;18.16;71.32;101937.41;5012650;28;20060;-72
2021/07/19 01:10:35;;;;;;;5.97;2.72;;;;;;;18.15;71.40;101934.97;5011763;28;20044;-72
2021/07/19 01:13:02;;;;;;;4.55;3.00;;;;;;;18.10;71.48;101930.22;5025952;28;20151;-72
2021/07/19 01:15:35;;;;;;;4.20;2.55;;;;;;;18.10;71.24;101932.84;5022274;28;20566;-72
2021/07/19 01:18:00;;;;;;;5.18;2.95;;;;;;;18.09;71.05;101932.06;5032807;28;20156;-72
2021/07/19 01:20:42;;;;;;;8.18;3.10;;;;;;;18.06;71.27;101932.44;5021205;28;20029;-72
2021/07/19 01:23:27;;;;;;;6.38;3.20;;;;;;;18.00;71.55;101927.88;5027014;28;20439;-73
2021/07/19 01:26:25;;;;;;;4.32;2.50;;;;;;;17.96;71.56;101933.66;5035805;28;20809;-72
2021/07/19 01:28:52;;;;;;;4.15;3.10;;;;;;;17.90;71.79;101933.38;5025179;28;20495;-73
2021/07/19 01:31:24;;;;;;;4.38;2.60;;;;;;;17.87;71.86;101933.72;5027223;28;20060;-73
2021/07/19 01:33:56;;;;;;;6.88;3.03;;;;;;;17.86;71.88;101923.41;5002969;28;20054;-73
2021/07/19 01:36:26;;;;;;;5.00;3.40;;;;;;;17.81;72.09;101921.28;5024941;28;20044;-73
2021/07/19 01:39:11;;;;;;;8.65;3.50;;;;;;;17.79;72.17;101917.22;5031688;28;20055;-73
2021/07/19 01:41:38;;;;;;;4.53;2.92;;;;;;;17.78;72.13;101911.16;5025129;28;20116;-73
2021/07/19 01:44:05;;;;;;;4.90;3.20;;;;;;;17.74;72.06;101912.47;5030858;28;20064;-73
2021/07/19 01:46:33;;;;;;;5.35;3.20;;;;;;;17.66;72.72;101912.56;5032141;28;20063;-73
2021/07/19 01:49:00;;;;;;;5.93;3.25;;;;;;;17.59;72.90;101914.25;5026637;28;20453;-73
2021/07/19 01:51:29;;;;;;;6.72;3.20;;;;;;;17.57;72.88;101914.41;5029552;28;20112;-72
2021/07/19 01:53:59;;;;;;;5.95;2.97;;;;;;;17.55;72.88;101916.41;5030280;28;20387;-73
2021/07/19 01:56:28;;;;;;;4.22;2.95;;;;;;;17.53;72.69;101907.91;5034065;28;20670;-72
2021/07/19 01:58:56;;;;;;;9.13;3.53;;;;;;;17.48;72.89;101913.69;5038205;28;20328;-72
2021/07/19 02:01:25;;;;;;;6.97;2.83;;;;;;;17.41;73.25;101910.13;5033029;28;20029;-72
2021/07/19 02:03:52;;;;;;;5.15;3.13;;;;;;;17.38;73.43;101912.25;5038840;28;20029;-72
2021/07/19 02:06:18;;;;;;;7.50;3.30;;;;;;;17.38;73.26;101917.50;5033794;28;20065;-71
2021/07/19 02:08:56;;;;;;;7.70;3.58;;;;;;;17.37;73.24;101926.38;5032747;28;20707;-71
2021/07/19 02:11:30;;;;;;;7.10;3.60;;;;;;;17.31;73.40;101930.50;5031429;28;20410;-71
2021/07/19 02:13:58;;;;;;;12.13;3.75;;;;;;;17.27;73.65;101926.56;5023945;28;20030;-71
2021/07/19 02:16:30;;;;;;;6.20;3.85;;;;;;;17.27;73.61;101934.44;5008012;28;20596;-71
2021/07/19 02:18:58;;;;;;;6.50;3.67;;;;;;;17.22;73.61;101939.41;5037457;28;20025;-72
2021/07/19 02:21:28;;;;;;;5.20;3.58;;;;;;;17.18;73.92;101938.09;5025349;28;20029;-71
2021/07/19 02:24:12;;;;;;;7.32;4.07;;;;;;;17.15;73.96;101947.13;5025425;28;20060;-71
2021/07/19 02:26:45;;;;;;;8.32;4.13;;;;;;;17.09;74.25;101946.00;5022843;28;20640;-71
2021/07/19 02:29:13;;;;;;;9.02;4.75;;;;;;;17.05;74.29;101943.91;5025925;28;20034;-71
2021/07/19 02:31:40;;;;;;;5.80;3.33;;;;;;;17.05;74.09;101936.06;5024937;28;20037;-71
2021/07/19 02:34:07;;;;;;;5.32;3.38;;;;;;;16.98;74.35;101930.66;5031647;28;20423;-71
2021/07/19 02:36:33;;;;;;;8.45;4.00;;;;;;;16.96;74.66;101931.84;5023121;28;20033;-71
2021/07/19 02:39:00;;;;;;;8.18;3.60;;;;;;;16.93;74.58;101928.56;5023641;28;20108;-71
2021/07/19 02:41:28;;;;;;;5.90;3.83;;;;;;;16.89;74.66;101927.25;5031289;28;20037;-71
2021/07/19 02:44:02;;;;;;;6.15;4.00;;;;;;;16.89;74.72;101921.22;5023377;28;20387;-71
2021/07/19 02:46:43;;;;;;;5.57;3.63;;;;;;;16.89;74.50;101924.63;5026919;28;20034;-71
2021/07/19 02:49:11;;;;;;;4.50;3.60;;;;;;;16.91;74.27;101917.44;5023485;28;20044;-71
2021/07/19 02:51:37;;;;;;;8.32;4.13;;;;;;;16.94;74.04;101918.91;5022402;28;20045;-70
2021/07/19 02:54:17;;;;;;;6.70;4.05;;;;;;;16.93;73.99;101919.88;5027109;28;20048;-71
2021/07/19 02:56:44;;;;;;;10.00;3.90;;;;;;;16.91;74.30;101920.06;5019293;28;20054;-71
2021/07/19 02:59:11;;;;;;;9.77;4.50;;;;;;;16.89;74.06;101921.22;5033461;28;20040;-71
2021/07/19 03:01:37;;;;;;;11.73;4.28;;;;;;;16.84;74.38;101915.66;5023162;28;20631;-70
2021/07/19 03:04:03;;;;;;;7.00;4.18;;;;;;;16.80;74.31;101925.66;5019647;28;20030;-70
2021/07/19 03:06:35;;;;;;;6.25;3.97;;;;;;;16.76;74.60;101934.81;5022106;28;20045;-71
2021/07/19 03:09:05;;;;;;;7.47;4.57;;;;;;;16.74;74.65;101923.69;5026086;28;20037;-71
2021/07/19 03:11:42;;;;;;;6.32;3.03;;;;;;;16.73;74.42;101924.69;5023412;28;20044;-70
2021/07/19 03:14:18;;;;;;;7.93;3.58;;;;;;;16.70;74.44;101923.19;5021746;28;20113;-71
2021/07/19 03:16:45;;;;;;;17.40;4.68;;;;;;;16.67;74.68;101920.94;5023335;28;20030;-70
2021/07/19 03:19:14;;;;;;;6.95;3.60;;;;;;;16.68;74.33;101927.00;5028166;28;20139;-71
2021/07/19 03:21:43;;;;;;;5.10;3.45;;;;;;;16.67;74.58;101923.56;5012029;28;20541;-71
2021/07/19 03:24:17;;;;;;;6.85;4.03;;;;;;;16.65;74.58;101932.56;5027794;28;20037;-71
2021/07/19 03:26:43;;;;;;;9.30;4.43;;;;;;;16.62;74.76;101930.28;5025552;28;20033;-71
2021/07/19 03:29:11;;;;;;;7.18;4.35;;;;;;;16.52;75.32;101927.88;5023544;28;20021;-71
2021/07/19 03:31:53;;;;;;;7.38;4.07;;;;;;;16.45;75.83;101919.84;5020332;28;20040;-72
2021/07/19 03:34:22;;;;;;;9.48;4.25;;;;;;;16.42;76.03;101930.66;5025459;28;20053;-71
2021/07/19 03:36:52;;;;;;;7.32;3.92;;;;;;;16.38;76.13;101925.94;5030703;28;20053;-71
2021/07/19 03:39:21;;;;;;;6.68;4.22;;;;;;;16.30;76.65;101919.72;5025919;28;20603;-71
2021/07/19 03:42:00;;;;;;;12.18;4.78;;;;;;;16.24;76.78;101930.06;5034619;28;20120;-71
2021/07/19 03:44:27;;;;;;;13.13;4.95;;;;;;;16.18;77.00;101920.22;5023501;28;20037;-71
2021/07/19 03:46:56;;;;;;;8.18;4.40;;;;;;;16.14;77.44;101917.13;5029435;28;20510;-72
2021/07/19 03:49:24;;;;;;;11.13;5.30;;;;;;;16.10;77.37;101921.06;5005232;28;20033;-72
2021/07/19 03:51:51;;;;;;;7.60;5.20;;;;;;;16.01;77.92;101928.13;5021886;28;20045;-72
2021/07/19 03:54:17;;;;;;;6.25;4.68;;;;;;;15.93;78.33;101931.53;5025808;28;20034;-72
2021/07/19 03:56:44;;;;;;;10.63;4.88;;;;;;;15.94;78.50;101925.31;5020927;28;20493;-72
2021/07/19 03:59:15;;;;;;;11.20;5.15;;;;;;;15.93;78.60;101934.13;5017394;28;20033;-72
2021/07/19 04:01:41;;;;;;;10.93;5.93;;;;;;;15.95;78.62;101931.34;5020959;28;20115;-72
2021/07/19 04:04:16;;;;;;;12.00;5.15;;;;;;;15.84;78.95;101935.13;5001706;28;20056;-72
2021/07/19 04:06:48;;;;;;;9.07;5.78;;;;;;;15.80;79.34;101940.84;5025725;28;20033;-72
2021/07/19 04:09:18;;;;;;;14.57;5.68;;;;;;;15.82;79.10;101949.34;5022533;28;20053;-72
2021/07/19 04:11:44;;;;;;;11.00;5.72;;;;;;;15.84;78.90;101939.53;5022568;28;20131;-72
2021/07/19 04:14:14;;;;;;;11.02;5.22;;;;;;;15.80;78.78;101935.63;5025318;28;20337;-72
2021/07/19 04:16:42;;;;;;;8.07;5.50;;;;;;;15.76;79.16;101942.97;5005021;28;20501;-72
2021/07/19 04:19:11;;;;;;;14.18;6.53;;;;;;;15.76;79.20;101949.03;5024949;28;20068;-72
2021/07/19 04:21:38;;;;;;;10.57;6.10;;;;;;;15.80;79.32;101953.91;5025830;28;20076;-72
2021/07/19 04:24:06;;;;;;;8.18;5.18;;;;;;;15.84;79.03;101950.84;5020315;28;20041;-72
2021/07/19 04:26:37;;;;;;;11.40;6.13;;;;;;;15.78;78.86;101951.47;5030977;28;20505;-72
2021/07/19 04:29:06;;;;;;;10.63;5.82;;;;;;;15.78;79.13;101951.47;5007032;28;20585;-72
2021/07/19 04:31:54;;;;;;;9.82;5.72;;;;;;;15.81;79.24;101951.16;5029449;28;20462;-72
2021/07/19 04:34:28;;;;;;;10.77;5.25;;;;;;;15.84;79.08;101956.06;5032567;28;20029;-72
2021/07/19 04:37:06;;;;;;;11.45;6.28;;;;;;;15.84;79.08;101948.22;5029376;28;20083;-72
2021/07/19 04:39:37;;;;;;;11.80;6.35;;;;;;;15.85;78.96;101959.50;5036482;28;20041;-71
2021/07/19 04:42:08;;;;;;;11.23;6.65;;;;;;;15.87;78.84;101955.72;5028173;28;20029;-71
2021/07/19 04:44:36;;;;;;;10.73;7.13;;;;;;;15.90;78.56;101955.41;5031042;28;20029;-71
2021/07/19 04:47:03;;;;;;;19.80;7.47;;;;;;;15.85;78.94;101955.06;5025419;28;20037;-71
2021/07/19 04:49:29;;;;;;;15.23;7.03;;;;;;;15.87;78.95;101960.94;5018968;28;20465;-70
2021/07/19 04:51:56;;;;;;;11.45;6.63;;;;;;;15.95;78.97;101957.50;5020543;28;20065;-71
2021/07/19 04:54:28;;;;;;;13.35;6.55;;;;;;;16.00;78.53;101964.88;5023148;28;20438;-72
2021/07/19 04:56:58;;;;;;;23.45;6.95;;;;;;;16.01;78.83;101969.97;5019891;28;20033;-71
2021/07/19 04:59:27;;;;;;;11.73;6.38;;;;;;;16.05;78.72;101968.66;5015395;28;20033;-71
2021/07/19 05:01:55;;;;;;;13.60;7.07;;;;;;;16.08;78.56;101968.31;5016839;28;20057;-70
2021/07/19 05:04:25;;;;;;;16.90;7.40;;;;;;;16.13;78.66;101975.69;5025522;28;20037;-70
2021/07/19 05:06:52;;;;;;;11.65;6.40;;;;;;;16.19;78.53;101971.59;5029087;28;20033;-70
2021/07/19 05:09:18;;;;;;;14.80;7.43;;;;;;;16.26;78.42;101969.94;5025581;28;20161;-70
2021/07/19 05:11:45;;;;;;;10.90;6.85;;;;;;;16.30;78.40;101972.06;5021555;28;20525;-71
2021/07/19 05:14:11;;;;;;;16.98;7.18;;;;;;;16.37;77.97;101977.47;5024152;28;20067;-71
2021/07/19 05:16:37;;;;;;;11.88;7.78;;;;;;;16.41;77.75;101975.34;5024610;28;20030;-71
2021/07/19 05:19:03;;;;;;;13.38;6.40;;;;;;;16.45;77.41;101981.88;5031724;28;20025;-70
2021/07/19 05:21:36;;;;;;;15.07;7.38;;;;;;;16.56;77.18;101968.44;5029014;28;20396;-71
2021/07/19 05:24:02;;;;;;;17.48;7.65;;;;;;;16.58;76.48;101976.94;5029271;28;20127;-71
2021/07/19 05:26:28;;;;;;;14.60;7.50;;;;;;;16.64;76.44;101976.25;5020603;28;20033;-71
2021/07/19 05:28:56;;;;;;;14.35;8.35;;;;;;;16.64;76.36;101986.72;5022229;28;20514;-71
2021/07/19 05:31:22;;;;;;;13.82;7.50;;;;;;;16.77;76.32;101982.78;5031972;28;20040;-72
2021/07/19 05:33:48;;;;;;;15.63;8.20;;;;;;;16.89;75.47;101984.88;5022818;28;20022;-70
2021/07/19 05:36:13;;;;;;;15.43;8.13;;;;;;;17.05;74.77;101978.78;5023905;28;20028;-71
2021/07/19 05:38:40;;;;;;;15.05;7.88;;;;;;;16.94;74.97;101979.16;5033788;28;20021;-72
2021/07/19 05:41:07;;;;;;;12.45;7.60;;;;;;;17.07;75.20;101982.03;5024039;28;20045;-72
2021/07/19 05:43:32;;;;;;;16.45;8.52;;;;;;;17.12;74.50;101992.00;5028134;28;20037;-71
2021/07/19 05:45:58;;;;;;;17.42;8.57;;;;;;;17.35;74.04;101978.97;5023296;28;20377;-72
2021/07/19 05:48:23;;;;;;;15.90;8.07;;;;;;;17.47;73.89;101982.81;5028750;28;20029;-72
2021/07/19 05:50:49;;;;;;;17.05;8.02;;;;;;;17.66;73.09;101992.03;5031031;28;20022;-72
2021/07/19 05:53:15;;;;;;;15.13;8.18;;;;;;;17.81;71.60;101986.06;5017407;28;20072;-72
2021/07/19 05:55:42;;;;;;;13.45;8.23;;;;;;;18.00;71.74;101987.41;5021795;28;20041;-71
2021/07/19 05:58:08;;;;;;;17.88;8.65;;;;;;;18.32;70.51;101988.94;5028628;28;20071;-72
2021/07/19 06:00:33;;;;;;;12.52;6.93;;;;;;;18.54;69.73;101976.75;5018699;28;20033;-73
2021/07/19 06:02:59;;;;;;;14.68;8.45;;;;;;;18.90;67.91;101981.31;5019521;28;20033;-72
2021/07/19 06:05:25;;;;;;;17.80;8.90;;;;;;;19.01;67.90;101980.03;5020972;28;20033;-72
2021/07/19 06:07:50;;;;;;;16.30;8.30;;;;;;;19.13;66.69;101972.47;5028762;28;20037;-72
2021/07/19 06:10:16;;;;;;;15.40;7.93;;;;;;;19.33;66.16;101981.41;5025470;28;20029;-71
2021/07/19 06:12:42;;;;;;;18.77;9.00;;;;;;;19.61;65.10;101986.78;5028300;28;20034;-72
2021/07/19 06:15:10;;;;;;;14.30;8.13;;;;;;;19.92;64.36;101988.28;5024910;28;20092;-72
2021/07/19 06:17:38;;;;;;;17.50;8.23;;;;;;;20.15;63.31;101990.69;5026926;28;20068;-72
2021/07/19 06:20:11;;;;;;;14.95;8.32;;;;;;;20.26;62.35;101978.84;5029123;28;20717;-73
2021/07/19 06:22:37;;;;;;;17.67;8.20;;;;;;;20.16;62.93;101979.19;5025460;28;20040;-72
2021/07/19 06:25:05;;;;;;;14.48;8.32;;;;;;;20.21;63.57;101983.84;5021027;28;20034;-72
2021/07/19 06:27:31;;;;;;;15.32;7.68;;;;;;;20.22;63.73;101975.78;5028291;28;20052;-72
2021/07/19 06:29:56;;;;;;;18.23;9.30;;;;;;;20.05;63.61;101981.53;5025961;28;20034;-73
2021/07/19 06:32:22;;;;;;;15.07;9.20;;;;;;;19.81;63.91;101984.34;5028116;28;20017;-73
2021/07/19 06:34:47;;;;;;;14.48;8.30;;;;;;;19.89;63.83;101983.41;5019296;28;20026;-72
2021/07/19 06:37:13;;;;;;;18.20;9.85;;;;;;;19.85;65.00;101987.41;5026394;28;20078;-72
2021/07/19 06:39:38;;;;;;;21.95;9.75;;;;;;;19.68;64.96;101983.38;5035672;28;20714;-73
2021/07/19 06:42:04;;;;;;;18.02;9.10;;;;;;;19.48;64.67;101988.44;5035218;28;20064;-73
2021/07/19 06:44:29;;;;;;;21.73;9.20;;;;;;;19.27;63.08;101992.69;5021947;28;20635;-73
2021/07/19 06:46:57;;;;;;;16.55;9.65;;;;;;;19.26;63.06;101994.47;5025655;28;20037;-72
2021/07/19 06:49:26;;;;;;;18.33;9.52;;;;;;;19.10;63.78;101996.50;5020391;28;20033;-72
2021/07/19 06:51:52;;;;;;;17.27;8.70;;;;;;;19.17;63.94;101990.31;5021780;28;20037;-72
2021/07/19 06:54:18;;;;;;;17.05;8.20;;;;;;;19.53;63.47;101992.13;5017462;28;20034;-72
2021/07/19 06:56:45;;;;;;;15.60;8.35;;;;;;;20.09;62.49;101998.56;5023422;28;20041;-72
2021/07/19 06:59:12;;;;;;;17.55;8.05;;;;;;;20.46;60.68;101993.97;5029218;28;20105;-73
2021/07/19 07:01:39;;;;;;;20.52;9.90;;;;;;;20.51;59.97;101992.41;5028228;28;20494;-73
2021/07/19 07:04:05;;;;;;;26.05;13.77;;;;;;;20.24;60.70;101999.28;5028733;28;20045;-72
2021/07/19 07:06:31;;;;;;;17.92;10.27;;;;;;;20.06;61.32;101994.50;5023274;28;20044;-72
2021/07/19 07:08:59;;;;;;;15.07;8.32;;;;;;;20.18;61.21;101992.16;5021935;28;20037;-71
2021/07/19 07:11:24;;;;;;;16.45;8.35;;;;;;;20.21;61.18;101999.66;5025500;28;20406;-72
2021/07/19 07:13:50;;;;;;;21.70;9.60;;;;;;;20.16;60.44;102002.06;5021246;28;20033;-73
2021/07/19 07:16:15;;;;;;;17.17;8.90;;;;;;;20.16;61.82;102002.88;5026114;28;20035;-74
2021/07/19 07:18:40;;;;;;;20.20;9.82;;;;;;;20.20;61.84;102000.69;5028231;28;20503;-72
2021/07/19 07:21:06;;;;;;;18.13;10.02;;;;;;;20.27;60.31;101991.00;5026560;28;20403;-73
2021/07/19 07:23:31;;;;;;;16.23;9.73;;;;;;;20.18;60.27;101997.41;5029233;28;20037;-72
2021/07/19 07:25:57;;;;;;;20.67;10.65;;;;;;;19.94;60.43;101991.53;5039784;28;20032;-74
2021/07/19 07:28:22;;;;;;;17.00;9.82;;;;;;;20.00;61.25;101995.22;5026062;28;20044;-74
2021/07/19 07:30:48;;;;;;;18.13;9.15;;;;;;;20.00;59.83;101996.06;5023920;28;20044;-73
2021/07/19 07:33:13;;;;;;;21.58;9.52;;;;;;;20.01;59.92;102002.94;5025348;28;20333;-73
2021/07/19 07:35:40;;;;;;;17.08;8.88;;;;;;;20.02;60.65;101994.06;5028036;28;20025;-73
2021/07/19 07:38:07;;;;;;;16.88;8.27;;;;;;;20.14;60.95;101991.72;5023192;28;20037;-72
2021/07/19 07:40:33;;;;;;;16.13;9.38;;;;;;;20.03;61.45;102002.75;5030295;28;20033;-74
2021/07/19 07:42:58;;;;;;;18.45;8.00;;;;;;;20.00;61.66;102001.34;5024477;28;20692;-72
2021/07/19 07:45:24;;;;;;;18.02;9.68;;;;;;;19.97;61.38;102006.97;5031597;28;20626;-72
2021/07/19 07:47:49;;;;;;;17.85;8.82;;;;;;;19.97;60.33;101999.06;5016026;28;20025;-74
2021/07/19 07:50:15;;;;;;;15.48;8.20;;;;;;;19.92;60.18;101998.81;5028576;28;20029;-73
2021/07/19 07:52:41;;;;;;;18.80;8.43;;;;;;;19.88;60.15;101997.56;5021029;28;20490;-72
2021/07/19 07:55:07;;;;;;;16.10;8.75;;;;;;;19.94;60.12;101998.63;5014246;28;20099;-73
2021/07/19 07:57:33;;;;;;;15.63;8.20;;;;;;;20.00;60.83;101996.06;5022853;28;20110;-73
2021/07/19 07:59:58;;;;;;;16.38;8.45;;;;;;;19.99;60.24;101991.00;5030932;28;20486;-73
2021/07/19 08:02:24;;;;;;;16.58;8.77;;;;;;;19.98;60.33;101986.72;5025026;28;20088;-73
2021/07/19 08:04:49;;;;;;;16.73;8.32;;;;;;;19.97;60.81;101996.44;5023308;28;20076;-72
2021/07/19 08:07:14;;;;;;;18.48;8.65;;;;;;;19.89;61.53;101995.75;5023241;28;20040;-73
2021/07/19 08:09:40;;;;;;;18.55;8.13;;;;;;;19.81;61.00;102001.97;5028922;28;20021;-72
2021/07/19 08:12:07;;;;;;;15.13;8.57;;;;;;;19.86;60.54;102006.66;5030924;28;20515;-72
2021/07/19 08:14:33;;;;;;;16.92;8.45;;;;;;;19.86;62.21;102012.75;5018137;28;20089;-73
2021/07/19 08:16:59;;;;;;;19.35;8.20;;;;;;;19.76;61.15;102001.69;5016375;28;20380;-72
2021/07/19 08:19:28;;;;;;;18.98;8.10;;;;;;;19.67;62.04;101998.34;5027089;28;20060;-73
2021/07/19 08:21:56;;;;;;;13.38;7.75;;;;;;;19.75;61.40;101995.63;5029496;28;20383;-74
2021/07/19 08:24:21;;;;;;;15.27;8.10;;;;;;;19.84;61.38;101994.50;5027693;28;20040;-73
2021/07/19 08:26:47;;;;;;;17.98;9.20;;;;;;;19.86;60.93;101985.63;5024835;28;20037;-73
2021/07/19 08:29:12;;;;;;;16.23;9.35;;;;;;;19.96;59.87;101986.09;5018553;28;20128;-73
2021/07/19 08:31:44;;;;;;;20.38;10.80;;;;;;;19.72;59.74;101980.22;5034343;28;20090;-72
2021/07/19 08:34:09;;;;;;;18.25;9.95;;;;;;;19.81;60.11;101988.78;5031104;28;20033;-71
2021/07/19 08:36:35;;;;;;;18.35;11.02;;;;;;;19.71;59.41;101999.59;5038397;28;20037;-72
2021/07/19 08:39:00;;;;;;;18.67;10.43;;;;;;;19.58;59.96;102010.00;5027440;28;20562;-72
2021/07/19 08:41:26;;;;;;;19.17;11.20;;;;;;;19.46;61.29;102004.41;5029563;28;20037;-74
2021/07/19 08:43:52;;;;;;;19.40;10.40;;;;;;;19.46;61.23;102009.69;5023766;28;20037;-73
2021/07/19 08:46:17;;;;;;;17.58;10.38;;;;;;;19.56;60.86;101998.84;5031163;28;20094;-73
2021/07/19 08:48:45;;;;;;;18.42;11.07;;;;;;;19.46;61.28;101999.16;5026493;28;20099;-72
2021/07/19 08:51:12;;;;;;;18.85;10.32;;;;;;;19.44;61.15;101993.28;5032802;28;20049;-72
2021/07/19 08:53:37;;;;;;;19.10;11.57;;;;;;;19.51;61.86;101994.13;5031503;28;20056;-72
2021/07/19 08:56:07;;;;;;;18.98;10.45;;;;;;;19.48;62.21;101997.16;5015565;28;20369;-72
2021/07/19 08:58:33;;;;;;;21.42;10.95;;;;;;;19.51;62.14;101993.31;5027738;28;20426;-73
2021/07/19 09:01:01;;;;;;;19.83;10.65;;;;;;;19.61;60.93;101989.41;5023127;28;20037;-72
2021/07/19 09:03:26;;;;;;;19.50;10.52;;;;;;;19.62;61.37;101990.22;5020123;28;20076;-72
2021/07/19 09:05:51;;;;;;;20.73;10.32;;;;;;;19.61;60.79;101992.03;5024687;28;20041;-73
2021/07/19 09:08:17;;;;;;;18.48;9.73;;;;;;;19.56;61.26;101990.97;5025836;28;20041;-72
2021/07/19 09:10:42;;;;;;;19.20;10.20;;;;;;;19.57;61.12;101992.56;5022037;28;20037;-72
2021/07/19 09:13:14;;;;;;;24.25;10.05;;;;;;;19.61;60.71;101992.03;5025946;28;20504;-71
2021/07/19 09:15:39;;;;;;;20.95;10.13;;;;;;;19.77;59.86;101987.56;5020083;28;20075;-72
2021/07/19 09:18:06;;;;;;;18.50;11.00;;;;;;;19.82;59.87;101995.69;5020853;28;20033;-72
2021/07/19 09:20:37;;;;;;;17.63;9.73;;;;;;;19.80;59.71;101981.91;5026656;28;20040;-72
2021/07/19 09:23:03;;;;;;;18.35;10.77;;;;;;;19.93;59.40;101984.66;5020560;28;20037;-72
2021/07/19 09:25:29;;;;;;;21.20;10.43;;;;;;;19.93;59.00;101995.19;5021282;28;20029;-72
2021/07/19 09:28:08;;;;;;;18.02;10.85;;;;;;;20.03;59.10;101997.50;5025141;28;20029;-72
2021/07/19 09:30:40;;;;;;;19.77;9.57;;;;;;;20.04;59.80;101999.13;5018688;28;20428;-72
2021/07/19 09:33:12;;;;;;;18.27;10.75;;;;;;;20.02;57.88;101996.69;5024590;28;20103;-73
2021/07/19 09:35:45;;;;;;;21.92;11.07;;;;;;;20.06;58.84;101988.41;5020942;28;20038;-73
2021/07/19 09:38:13;;;;;;;22.02;13.68;;;;;;;20.05;56.90;101984.16;5022118;28;20034;-72
2021/07/19 09:40:40;;;;;;;26.27;14.95;;;;;;;20.01;56.98;101984.53;5025537;28;20033;-73
2021/07/19 09:43:16;;;;;;;27.95;16.45;;;;;;;20.11;57.02;101983.38;5023587;28;20069;-74
2021/07/19 09:45:42;;;;;;;25.08;14.68;;;;;;;20.06;56.60;101986.59;5013724;28;20048;-73
2021/07/19 09:48:09;;;;;;;27.92;17.10;;;;;;;20.15;56.46;101980.16;5023585;28;20021;-72
2021/07/19 09:50:50;;;;;;;28.27;18.35;;;;;;;20.16;56.58;101979.19;5037980;28;20414;-73
2021/07/19 09:53:31;;;;;;;26.58;16.58;;;;;;;20.19;56.93;101984.06;5029693;28;20087;-72
2021/07/19 09:56:21;;;;;;;25.42;16.80;;;;;;;20.07;57.99;101985.59;5029511;28;20037;-72
2021/07/19 09:58:51;;;;;;;26.77;18.55;;;;;;;20.29;56.93;101981.09;5022510;28;20417;-74
2021/07/19 10:01:30;;;;;;;28.25;17.80;;;;;;;20.39;55.80;101984.19;5025802;28;20021;-72
2021/07/19 10:04:01;;;;;;;22.50;14.73;;;;;;;20.40;56.41;101980.56;5027896;28;20099;-72
2021/07/19 10:06:29;;;;;;;26.38;17.50;;;;;;;20.55;55.48;101977.00;5035519;28;20043;-72
2021/07/19 10:08:56;;;;;;;28.45;19.05;;;;;;;20.55;56.62;101974.34;5029753;28;20529;-72
2021/07/19 10:11:22;;;;;;;33.72;19.70;;;;;;;20.66;55.32;101976.47;5032004;28;20037;-72
2021/07/19 10:13:52;;;;;;;31.45;20.42;;;;;;;20.80;55.96;101975.53;5028846;28;20407;-71
2021/07/19 10:16:18;;;;;;;33.20;23.38;;;;;;;20.81;55.36;101978.97;5040793;28;20045;-73
2021/07/19 10:18:49;;;;;;;37.78;25.85;;;;;;;20.93;53.69;101976.63;5036477;28;20041;-72
2021/07/19 10:21:15;;;;;;;36.63;24.13;;;;;;;20.93;53.50;101985.34;5020611;28;20548;-72
2021/07/19 10:23:40;;;;;;;29.83;20.55;;;;;;;20.94;53.21;101975.59;5032765;28;20029;-72
2021/07/19 10:26:06;;;;;;;18.80;12.10;;;;;;;20.84;52.32;101972.53;5029157;28;20115;-73
2021/07/19 10:28:32;;;;;;;22.25;13.05;;;;;;;21.02;52.59;101970.19;5029898;28;20099;-73
2021/07/19 10:30:58;;;;;;;22.00;12.77;;;;;;;21.08;52.82;101974.66;5026748;28;20047;-72
2021/07/19 10:33:23;;;;;;;22.13;14.10;;;;;;;21.15;51.97;101967.59;5037587;28;20018;-73
2021/07/19 10:35:50;;;;;;;22.85;14.45;;;;;;;21.24;52.67;101957.66;5030402;28;20118;-73
2021/07/19 10:38:22;;;;;;;20.55;14.52;;;;;;;21.06;52.50;101955.59;5026072;28;20083;-74
2021/07/19 10:40:53;;;;;;;20.58;13.45;;;;;;;21.02;53.09;101956.16;5037817;28;20033;-72
2021/07/19 10:43:19;;;;;;;22.85;13.85;;;;;;;21.03;53.45;101950.69;5024520;28;20037;-72
2021/07/19 10:45:53;;;;;;;18.42;12.02;;;;;;;21.04;53.65;101956.78;5021615;28;20033;-73
2021/07/19 10:48:23;;;;;;;17.75;11.73;;;;;;;21.17;53.47;101954.19;5039353;28;20701;-73
2021/07/19 10:50:49;;;;;;;18.33;11.13;;;;;;;21.11;53.92;101958.41;5027916;28;20466;-73
2021/07/19 10:53:17;;;;;;;19.10;10.95;;;;;;;21.25;53.63;101948.75;5030487;28;20033;-73
2021/07/19 10:55:44;;;;;;;17.92;10.90;;;;;;;21.37;53.14;101952.41;5031865;28;20061;-72
2021/07/19 10:58:16;;;;;;;15.95;10.32;;;;;;;21.55;54.07;101943.94;5015067;28;20033;-73
2021/07/19 11:00:46;;;;;;;16.20;10.70;;;;;;;21.52;53.63;101940.91;5018395;28;20034;-74
2021/07/19 11:03:15;;;;;;;20.80;10.18;;;;;;;21.55;52.87;101943.16;5028178;28;20042;-73
2021/07/19 11:05:43;;;;;;;24.77;10.13;;;;;;;21.50;51.61;101942.94;5017412;28;20516;-74
2021/07/19 11:08:24;;;;;;;19.98;10.90;;;;;;;21.41;50.85;101938.81;5015944;28;20040;-72
2021/07/19 11:10:51;;;;;;;18.80;10.75;;;;;;;21.20;52.42;101936.13;5022331;28;20501;-73
2021/07/19 11:13:31;;;;;;;17.48;10.07;;;;;;;21.41;51.97;101939.63;5032627;28;20037;-75
2021/07/19 11:15:58;;;;;;;17.88;10.90;;;;;;;21.55;51.86;101929.97;5021633;28;20041;-74
2021/07/19 11:18:27;;;;;;;21.02;11.70;;;;;;;22.01;51.50;101930.97;5034585;28;20025;-72
2021/07/19 11:20:55;;;;;;;17.55;11.00;;;;;;;22.12;50.06;101922.41;5029618;28;20099;-74
2021/07/19 11:23:26;;;;;;;17.23;11.00;;;;;;;22.13;50.14;101924.84;5024844;28;20033;-74
2021/07/19 11:25:52;;;;;;;18.00;10.40;;;;;;;;;;5030636;28;20592;-75